Time;durP1;ratioP1;P1;durP2;ratioP2;P2;SDS_P1;SDS_P2;PMS_P1;PMS_P2;Temp;Humidity;BMP_temperature;BMP_pressure;BME280_temperature;BME280_humidity;BME280_pressure;Samples;Min_cycle;Max_cycle;Signal;HPM_P1;HPM_P2
2023/02/10 00:00:24;;;;;;;58.80;27.80;;;;;;;-5.17;100.00;102985.00;5002566;28;20141;-77
2023/02/10 00:02:49;;;;;;;60.28;33.35;;;;;;;-5.26;100.00;102968.69;4999195;28;20482;-79
2023/02/10 00:05:15;;;;;;;91.43;41.60;;;;;;;-4.99;100.00;102991.09;4995294;28;20050;-80
2023/02/10 00:07:40;;;;;;;78.80;38.75;;;;;;;-4.84;100.00;103009.75;5005092;28;20378;-77
2023/02/10 00:10:06;;;;;;;73.47;29.73;;;;;;;-5.46;100.00;102861.69;4994434;28;20050;-78
2023/02/10 00:12:35;;;;;;;62.65;36.05;;;;;;;-5.54;100.00;102892.50;4993584;28;20108;-79
2023/02/10 00:15:00;;;;;;;52.83;24.27;;;;;;;-4.94;100.00;102982.25;4991483;28;20046;-79
2023/02/10 00:17:26;;;;;;;41.67;24.58;;;;;;;-4.78;100.00;103003.56;4997282;28;20038;-80
2023/02/10 00:19:51;;;;;;;65.93;27.08;;;;;;;-4.86;100.00;102983.97;5007251;28;20402;-77
2023/02/10 00:22:18;;;;;;;55.58;27.90;;;;;;;-5.06;100.00;102953.72;4998198;28;20081;-80
2023/02/10 00:24:43;;;;;;;41.45;22.23;;;;;;;-4.66;100.00;102988.56;5000154;28;20042;-78
2023/02/10 00:27:09;;;;;;;44.33;24.63;;;;;;;-5.57;100.00;102828.25;5001589;28;20787;-78
2023/02/10 00:29:34;;;;;;;47.90;26.67;;;;;;;-5.59;100.00;102841.63;5006238;28;20493;-77
2023/02/10 00:32:00;;;;;;;38.50;23.50;;;;;;;-5.53;100.00;102863.59;5000260;28;20060;-78
2023/02/10 00:34:27;;;;;;;46.30;27.30;;;;;;;-4.79;100.00;102981.28;5007068;28;20114;-78
2023/02/10 00:36:52;;;;;;;52.97;28.08;;;;;;;-4.93;100.00;102982.41;4997436;28;20077;-79
2023/02/10 00:39:18;;;;;;;52.92;24.83;;;;;;;-5.63;100.00;102826.69;5003154;28;20081;-78
2023/02/10 00:41:44;;;;;;;39.03;24.23;;;;;;;-4.98;100.00;102952.88;4999243;28;20025;-80
2023/02/10 00:44:09;;;;;;;60.03;25.88;;;;;;;-5.31;100.00;102838.59;4997331;28;20049;-79
2023/02/10 00:46:35;;;;;;;42.30;24.95;;;;;;;-5.36;100.00;102828.63;4996979;28;20649;-78
2023/02/10 00:49:01;;;;;;;48.38;22.63;;;;;;;-4.57;100.00;102945.06;4998986;28;20050;-78
2023/02/10 00:51:26;;;;;;;46.28;23.60;;;;;;;-4.55;100.00;102964.97;4991122;28;20058;-77
2023/02/10 00:53:52;;;;;;;43.25;23.83;;;;;;;-4.50;100.00;102966.31;5004953;28;20045;-78
2023/02/10 00:56:19;;;;;;;46.40;26.92;;;;;;;-5.41;100.00;102825.63;5005651;28;20691;-79
2023/02/10 00:58:45;;;;;;;50.75;27.08;;;;;;;-4.88;100.00;102917.22;4997210;28;20053;-78
2023/02/10 01:01:11;;;;;;;46.92;25.40;;;;;;;-4.71;100.00;102931.75;5005022;28;20061;-77
2023/02/10 01:03:38;;;;;;;52.25;25.98;;;;;;;-5.41;100.00;102842.59;5002209;28;20038;-79
2023/02/10 01:06:04;;;;;;;44.75;25.73;;;;;;;-4.77;100.00;102948.16;5009029;28;20036;-78
2023/02/10 01:08:30;;;;;;;46.85;25.08;;;;;;;-5.34;100.00;102860.41;5003911;28;20049;-78
2023/02/10 01:11:07;;;;;;;40.13;25.48;;;;;;;-5.44;100.00;102858.53;5004183;28;20034;-79
2023/02/10 01:13:33;;;;;;;41.85;23.60;;;;;;;-5.70;100.00;102799.59;5003451;28;20746;-77
2023/02/10 01:16:00;;;;;;;45.58;24.00;;;;;;;-4.64;100.00;102981.94;5000312;28;20056;-79
2023/02/10 01:18:25;;;;;;;53.63;24.73;;;;;;;-4.56;100.00;102975.06;4998539;28;20046;-79
2023/02/10 01:20:51;;;;;;;45.90;22.83;;;;;;;-4.50;100.00;102975.69;4991288;28;20038;-78
2023/02/10 01:23:16;;;;;;;44.70;24.75;;;;;;;-4.76;100.00;102989.28;5001793;28;20086;-79
2023/02/10 01:25:42;;;;;;;60.38;26.90;;;;;;;-4.91;100.00;102957.00;4999934;28;20050;-77
2023/02/10 01:28:08;;;;;;;54.28;25.20;;;;;;;-4.93;100.00;102932.88;4998832;28;20541;-78
2023/02/10 01:30:34;;;;;;;39.65;22.75;;;;;;;-4.89;100.00;102933.34;5010337;28;20177;-78
2023/02/10 01:33:00;;;;;;;50.78;24.10;;;;;;;-4.67;100.00;102966.28;5013803;28;20067;-78
2023/02/10 01:35:26;;;;;;;63.53;27.58;;;;;;;-4.85;100.00;102924.31;4996485;28;20089;-77
2023/02/10 01:37:52;;;;;;;39.97;23.52;;;;;;;-4.62;100.00;102957.41;5001079;28;20053;-78
2023/02/10 01:40:17;;;;;;;39.05;21.65;;;;;;;-5.66;100.00;102806.84;5005523;28;20046;-77
2023/02/10 01:42:45;;;;;;;39.55;19.33;;;;;;;-5.44;100.00;102843.19;5001919;28;20103;-78
2023/02/10 01:45:32;;;;;;;40.42;22.02;;;;;;;-4.63;100.00;102963.28;4996859;28;20030;-78
2023/02/10 01:48:00;;;;;;;40.70;20.67;;;;;;;-4.75;100.00;102959.47;4988540;28;20049;-78
2023/02/10 01:50:41;;;;;;;48.97;20.98;;;;;;;-4.57;100.00;102950.19;4999975;28;20030;-77
2023/02/10 01:53:06;;;;;;;35.33;20.13;;;;;;;-4.74;100.00;102925.41;4994781;28;20050;-77
2023/02/10 01:55:34;;;;;;;42.40;19.73;;;;;;;-4.75;100.00;102921.06;5001418;28;20476;-77
2023/02/10 01:58:03;;;;;;;29.90;17.33;;;;;;;-4.75;100.00;102893.78;4995757;28;20042;-78
2023/02/10 02:00:29;;;;;;;37.10;17.67;;;;;;;-4.57;100.00;102945.97;4990262;28;20054;-78
2023/02/10 02:02:55;;;;;;;26.83;14.40;;;;;;;-5.22;100.00;102825.84;4999753;28;20467;-78
2023/02/10 02:05:30;;;;;;;30.80;14.18;;;;;;;-4.68;100.00;102969.59;4998229;28;20181;-77
2023/02/10 02:08:00;;;;;;;27.83;16.13;;;;;;;-4.75;100.00;102946.66;4999340;28;20478;-78
2023/02/10 02:10:40;;;;;;;25.42;14.50;;;;;;;-5.53;100.00;102789.44;4999042;28;20038;-78
2023/02/10 02:13:18;;;;;;;24.45;14.57;;;;;;;-5.61;100.00;102781.75;4995700;28;20077;-77
2023/02/10 02:16:07;;;;;;;25.83;15.52;;;;;;;-4.82;100.00;102931.41;4991932;28;20046;-77
2023/02/10 02:18:38;;;;;;;30.10;17.35;;;;;;;-4.66;100.00;102939.91;4995747;28;20073;-78
2023/02/10 02:21:36;;;;;;;25.95;15.70;;;;;;;-4.57;100.00;102945.97;4998587;28;20435;-79
2023/02/10 02:24:30;;;;;;;21.92;14.15;;;;;;;-5.08;100.00;102857.97;5006515;28;20030;-78
2023/02/10 02:27:03;;;;;;;40.80;18.63;;;;;;;-4.66;100.00;102921.97;4996829;28;20045;-78
2023/02/10 02:29:42;;;;;;;25.50;15.32;;;;;;;-4.57;100.00;102927.13;4992782;28;20096;-78
2023/02/10 02:32:40;;;;;;;30.88;16.70;;;;;;;-5.60;100.00;102771.66;5000280;28;20045;-77
2023/02/10 02:35:11;;;;;;;29.73;16.13;;;;;;;-5.64;100.00;102773.72;4994903;28;20090;-75
2023/02/10 02:37:45;;;;;;;25.20;13.35;;;;;;;-4.97;100.00;102882.09;4991605;28;20145;-77
2023/02/10 02:40:13;;;;;;;43.67;17.75;;;;;;;-5.61;100.00;102763.84;4996326;28;20095;-77
2023/02/10 02:42:38;;;;;;;31.58;14.25;;;;;;;-5.82;100.00;102742.97;4991388;28;20046;-77
2023/02/10 02:45:04;;;;;;;29.52;15.90;;;;;;;-4.86;100.00;102921.63;4994983;28;20104;-76
2023/02/10 02:48:01;;;;;;;31.63;15.75;;;;;;;-4.81;100.00;102905.06;4993401;28;20415;-77
2023/02/10 02:50:41;;;;;;;35.30;16.63;;;;;;;-4.78;100.00;102901.13;4996666;28;20061;-76
2023/02/10 02:53:13;;;;;;;27.52;15.77;;;;;;;-4.92;100.00;102906.50;4999147;28;20049;-78
2023/02/10 02:56:09;;;;;;;26.23;17.92;;;;;;;-4.77;100.00;102902.97;5002125;28;20058;-75
2023/02/10 02:59:06;;;;;;;22.02;13.23;;;;;;;-4.99;100.00;102897.28;5007399;28;20061;-77
2023/02/10 03:01:39;;;;;;;34.17;16.77;;;;;;;-5.20;100.00;102869.50;4989164;28;20056;-78
2023/02/10 03:04:05;;;;;;;23.92;13.65;;;;;;;-5.53;100.00;102766.41;5003246;28;20050;-78
2023/02/10 03:06:31;;;;;;;24.65;13.35;;;;;;;-5.02;100.00;102881.63;5020403;28;20617;-76
2023/02/10 03:08:57;;;;;;;29.67;14.73;;;;;;;-5.14;100.00;102865.03;5004073;28;20060;-78
2023/02/10 03:11:22;;;;;;;30.08;15.38;;;;;;;-4.82;100.00;102888.81;4992620;28;20033;-76
2023/02/10 03:13:47;;;;;;;34.78;14.18;;;;;;;-4.82;100.00;102882.75;4998588;28;20482;-76
2023/02/10 03:16:13;;;;;;;47.85;17.90;;;;;;;-4.73;100.00;102883.69;4998587;28;20054;-80
2023/02/10 03:18:39;;;;;;;29.67;15.13;;;;;;;-5.18;100.00;102827.97;4995305;28;20052;-77
2023/02/10 03:21:04;;;;;;;29.15;15.00;;;;;;;-5.20;100.00;102851.59;4990101;28;20533;-77
2023/02/10 03:23:30;;;;;;;33.92;17.85;;;;;;;-5.13;100.00;102854.03;5001244;28;20038;-79
2023/02/10 03:25:58;;;;;;;24.70;15.30;;;;;;;-5.15;100.00;102863.19;4995454;28;20057;-76
2023/02/10 03:28:24;;;;;;;24.23;15.52;;;;;;;-5.01;100.00;102874.84;4995733;28;20053;-76
2023/02/10 03:30:50;;;;;;;32.83;16.50;;;;;;;-5.36;100.00;102827.00;5004860;28;20644;-79
2023/02/10 03:33:16;;;;;;;24.83;13.88;;;;;;;-5.64;100.00;102771.16;4999675;28;20057;-79
2023/02/10 03:35:44;;;;;;;33.35;15.63;;;;;;;-5.21;100.00;102843.00;5003599;28;20029;-77
2023/02/10 03:38:10;;;;;;;27.65;17.55;;;;;;;-4.81;100.00;102894.81;5011539;28;20129;-77
2023/02/10 03:40:36;;;;;;;23.48;13.05;;;;;;;-5.80;100.00;102727.81;4991229;28;20053;-80
2023/02/10 03:43:02;;;;;;;33.80;15.38;;;;;;;-4.87;100.00;102872.03;4995027;28;20124;-77
2023/02/10 03:45:27;;;;;;;29.48;15.27;;;;;;;-4.93;100.00;102848.38;4999316;28;20092;-79
2023/02/10 03:47:53;;;;;;;28.25;18.33;;;;;;;-5.06;100.00;102807.81;5005102;28;20045;-76
2023/02/10 03:50:18;;;;;;;29.02;16.02;;;;;;;-4.92;100.00;102837.38;4998026;28;20060;-78
2023/02/10 03:52:44;;;;;;;26.75;15.88;;;;;;;-5.03;100.00;102835.38;4995658;28;20046;-75
2023/02/10 03:55:14;;;;;;;36.13;13.40;;;;;;;-4.94;100.00;102867.03;4995858;28;20136;-76
2023/02/10 03:57:40;;;;;;;29.65;15.23;;;;;;;-5.30;100.00;102819.94;4996383;28;20050;-77
2023/02/10 04:00:06;;;;;;;32.22;16.45;;;;;;;-5.35;100.00;102843.25;4998908;28;20038;-76
2023/02/10 04:02:32;;;;;;;35.75;19.52;;;;;;;-5.99;100.00;102685.03;4992380;28;20473;-78
2023/02/10 04:04:57;;;;;;;29.98;17.00;;;;;;;-5.01;100.00;102842.50;5000720;28;20077;-77
2023/02/10 04:07:23;;;;;;;32.15;15.63;;;;;;;-5.62;100.00;102737.38;4994168;28;20042;-76
2023/02/10 04:09:48;;;;;;;31.83;17.02;;;;;;;-6.06;100.00;102630.59;5002360;28;20965;-76
2023/02/10 04:12:14;;;;;;;36.97;20.55;;;;;;;-6.07;100.00;102710.53;5001998;28;20148;-78
2023/02/10 04:14:39;;;;;;;26.52;15.80;;;;;;;-5.73;100.00;102735.34;4995345;28;20049;-77
2023/02/10 04:17:05;;;;;;;30.00;17.15;;;;;;;-5.54;100.00;102767.16;5000069;28;20050;-78
2023/02/10 04:19:30;;;;;;;30.38;16.20;;;;;;;-6.03;100.00;102702.47;5000313;28;20061;-76
2023/02/10 04:21:56;;;;;;;33.78;17.15;;;;;;;-5.03;100.00;102861.91;4992803;28;20503;-78
2023/02/10 04:24:22;;;;;;;22.92;14.35;;;;;;;-5.07;100.00;102851.19;4998665;28;20046;-78
2023/02/10 04:26:47;;;;;;;36.22;17.75;;;;;;;-6.00;100.00;102655.09;5005301;28;20069;-78
2023/02/10 04:29:13;;;;;;;31.02;18.30;;;;;;;-5.76;100.00;102707.81;5001112;28;20053;-76
2023/02/10 04:31:38;;;;;;;27.98;14.45;;;;;;;-5.68;100.00;102703.47;4994257;28;20447;-76
2023/02/10 04:34:03;;;;;;;38.65;19.20;;;;;;;-6.17;100.00;102652.47;4995130;28;20100;-77
2023/02/10 04:36:29;;;;;;;42.53;16.67;;;;;;;-5.95;100.00;102684.63;4996060;28;20042;-76
2023/02/10 04:38:54;;;;;;;38.10;21.48;;;;;;;-5.02;100.00;102819.28;5002087;28;20083;-76
2023/02/10 04:41:20;;;;;;;37.08;17.90;;;;;;;-4.98;100.00;102783.03;4998967;28;20117;-75
2023/02/10 04:43:45;;;;;;;35.10;18.10;;;;;;;-5.88;100.00;102674.97;4992779;28;20050;-78
2023/02/10 04:46:11;;;;;;;39.50;22.15;;;;;;;-6.00;100.00;102667.88;5001960;28;20144;-76
2023/02/10 04:48:36;;;;;;;37.97;19.08;;;;;;;-5.00;100.00;102815.25;5001306;28;20101;-76
2023/02/10 04:51:07;;;;;;;35.13;17.88;;;;;;;-5.16;100.00;102820.44;4993412;28;20112;-76
2023/02/10 04:53:32;;;;;;;43.80;20.10;;;;;;;-5.26;100.00;102807.47;4998351;28;20046;-75
2023/02/10 04:55:58;;;;;;;36.95;21.83;;;;;;;-5.24;100.00;102767.59;4990643;28;20046;-81
2023/02/10 04:58:23;;;;;;;41.17;19.48;;;;;;;-5.21;100.00;102813.97;4991455;28;20057;-78
2023/02/10 05:00:49;;;;;;;41.40;22.10;;;;;;;-5.02;100.00;102811.63;4993540;28;20761;-81
2023/02/10 05:03:14;;;;;;;43.78;22.02;;;;;;;-5.02;100.00;102817.63;4998356;28;20164;-78
2023/02/10 05:05:40;;;;;;;51.50;22.90;;;;;;;-5.10;100.00;102793.84;4995852;28;20072;-78
2023/02/10 05:08:06;;;;;;;40.40;19.27;;;;;;;-5.96;100.00;102674.22;5001895;28;20042;-79
2023/02/10 05:10:32;;;;;;;40.38;22.77;;;;;;;-5.13;100.00;102798.66;5002479;28;20049;-79
2023/02/10 05:12:57;;;;;;;46.83;22.00;;;;;;;-5.20;100.00;102785.06;5001156;28;20454;-80
2023/02/10 05:15:23;;;;;;;45.88;23.88;;;;;;;-4.88;100.00;102796.88;4997249;28;20045;-79
2023/02/10 05:17:48;;;;;;;48.53;24.00;;;;;;;-4.97;100.00;102812.97;4999858;28;20979;-80
2023/02/10 05:20:14;;;;;;;40.45;22.67;;;;;;;-5.07;100.00;102823.94;5002330;28;20154;-80
2023/02/10 05:22:40;;;;;;;36.97;20.00;;;;;;;-5.35;100.00;102797.19;5004289;28;20060;-78
2023/02/10 05:25:07;;;;;;;39.25;21.48;;;;;;;-5.96;100.00;102692.13;4996070;28;20056;-79
2023/02/10 05:27:33;;;;;;;41.80;22.40;;;;;;;-6.06;100.00;102690.28;4994784;28;20088;-78
2023/02/10 05:29:58;;;;;;;47.45;22.38;;;;;;;-6.04;100.00;102691.34;4993277;28;20573;-78
2023/02/10 05:32:25;;;;;;;52.42;22.95;;;;;;;-5.73;100.00;102709.78;4995164;28;20521;-76
2023/02/10 05:34:50;;;;;;;44.00;22.83;;;;;;;-5.73;100.00;102682.56;4999729;28;20065;-79
2023/02/10 05:37:16;;;;;;;45.28;23.50;;;;;;;-5.41;100.00;102797.50;4992287;28;20053;-78
2023/02/10 05:39:42;;;;;;;40.75;22.55;;;;;;;-5.21;100.00;102813.97;5007296;28;20065;-79
2023/02/10 05:42:08;;;;;;;36.28;20.50;;;;;;;-6.06;100.00;102651.94;4991914;28;20522;-78
2023/02/10 05:44:33;;;;;;;53.75;23.80;;;;;;;-5.81;100.00;102685.97;4998903;28;20042;-78
2023/02/10 05:46:59;;;;;;;42.22;22.08;;;;;;;-4.95;100.00;102840.53;4992620;28;20052;-81
2023/02/10 05:49:25;;;;;;;48.40;23.52;;;;;;;-5.77;100.00;102725.56;4996410;28;20517;-80
2023/02/10 05:51:51;;;;;;;41.13;23.42;;;;;;;-5.29;100.00;102818.31;4993528;28;20081;-78
2023/02/10 05:54:16;;;;;;;47.10;25.30;;;;;;;-5.64;100.00;102735.38;4995269;28;20061;-79
2023/02/10 05:56:42;;;;;;;54.70;28.80;;;;;;;-5.05;100.00;102798.53;4998336;28;20124;-77
2023/02/10 05:59:10;;;;;;;44.33;25.08;;;;;;;-5.67;100.00;102676.25;4994030;28;20061;-80
2023/02/10 06:01:35;;;;;;;40.92;26.13;;;;;;;-5.00;100.00;102782.84;4992232;28;20046;-79
2023/02/10 06:04:01;;;;;;;38.30;23.63;;;;;;;-4.79;100.00;102819.97;5000809;28;20057;-80
2023/02/10 06:06:26;;;;;;;59.17;25.40;;;;;;;-4.90;100.00;102838.44;4993498;28;20058;-78
2023/02/10 06:08:53;;;;;;;43.72;21.92;;;;;;;-5.43;100.00;102729.91;5004893;28;20068;-78
2023/02/10 06:11:18;;;;;;;50.10;25.23;;;;;;;-5.57;100.00;102662.00;4994114;28;20057;-77
2023/02/10 06:13:44;;;;;;;49.30;28.70;;;;;;;-4.99;100.00;102789.78;4993260;28;20107;-77
2023/02/10 06:16:11;;;;;;;41.92;24.65;;;;;;;-4.74;100.00;102817.88;4995021;28;20049;-77
2023/02/10 06:18:36;;;;;;;60.65;30.63;;;;;;;-4.59;100.00;102839.91;4994515;28;20048;-80
2023/02/10 06:21:02;;;;;;;59.15;31.83;;;;;;;-5.00;100.00;102748.69;4994169;28;20061;-79
2023/02/10 06:23:27;;;;;;;52.25;27.25;;;;;;;-4.64;100.00;102825.69;4997560;28;20185;-77
2023/02/10 06:25:54;;;;;;;44.95;28.13;;;;;;;-4.58;100.00;102821.19;4998734;28;20050;-78
2023/02/10 06:28:22;;;;;;;54.55;26.83;;;;;;;-4.77;100.00;102835.50;4992839;28;20058;-80
2023/02/10 06:30:48;;;;;;;46.60;28.40;;;;;;;-4.55;100.00;102815.47;4994353;28;20059;-76
2023/02/10 06:33:13;;;;;;;48.28;27.85;;;;;;;-5.01;100.00;102713.59;4987130;28;20038;-77
2023/02/10 06:35:39;;;;;;;49.38;24.95;;;;;;;-4.20;100.00;102852.28;4993227;28;20125;-78
2023/02/10 06:38:04;;;;;;;50.10;25.45;;;;;;;-4.30;100.00;102834.19;5004634;28;20376;-78
2023/02/10 06:40:30;;;;;;;51.75;26.52;;;;;;;-4.92;100.00;102709.38;4999900;28;20050;-80
2023/02/10 06:42:55;;;;;;;56.40;28.65;;;;;;;-4.47;100.00;102812.94;4989158;28;20042;-78
2023/02/10 06:45:20;;;;;;;52.58;29.75;;;;;;;-4.76;100.00;102697.34;4992211;28;20109;-78
2023/02/10 06:47:46;;;;;;;49.22;25.30;;;;;;;-3.88;100.00;102837.50;4989584;28;20045;-79
2023/02/10 06:50:13;;;;;;;56.45;29.35;;;;;;;-4.04;100.00;102801.75;4997936;28;20510;-78
2023/02/10 06:52:38;;;;;;;71.70;35.28;;;;;;;-4.37;100.00;102739.53;4995478;28;20042;-77
2023/02/10 06:55:08;;;;;;;70.88;35.75;;;;;;;-4.40;100.00;102732.47;4996598;28;21465;-77
2023/02/10 06:57:35;;;;;;;58.72;29.35;;;;;;;-4.43;100.00;102716.75;4977934;28;20065;-78
2023/02/10 07:00:07;;;;;;;75.00;33.47;;;;;;;-3.74;100.00;102859.34;4994668;28;20097;-75
2023/02/10 07:02:34;;;;;;;64.10;35.92;;;;;;;-3.65;100.00;102842.28;4998642;28;20045;-76
2023/02/10 07:04:59;;;;;;;51.60;30.60;;;;;;;-4.54;100.00;102718.28;4996967;28;20084;-77
2023/02/10 07:07:25;;;;;;;59.80;30.40;;;;;;;-4.49;100.00;102763.19;4999193;28;20081;-75
2023/02/10 07:09:53;;;;;;;74.25;34.33;;;;;;;-4.48;100.00;102721.44;4997276;28;20042;-74
2023/02/10 07:12:19;;;;;;;67.05;38.50;;;;;;;-3.73;100.00;102835.50;5006080;28;20042;-76
2023/02/10 07:14:45;;;;;;;65.75;31.02;;;;;;;-3.33;100.00;102851.25;5005040;28;20127;-77
2023/02/10 07:17:10;;;;;;;91.55;37.60;;;;;;;-3.52;100.00;102823.81;5001487;28;20493;-76
2023/02/10 07:19:36;;;;;;;70.30;32.17;;;;;;;-3.24;100.00;102876.13;4998127;28;20473;-75
2023/02/10 07:22:04;;;;;;;61.90;27.80;;;;;;;-3.96;100.00;102740.94;4998853;28;20049;-75
2023/02/10 07:24:31;;;;;;;50.13;27.95;;;;;;;-3.16;100.00;102842.56;4990984;28;20062;-77
2023/02/10 07:26:56;;;;;;;55.15;30.00;;;;;;;-3.00;100.00;102871.50;5012096;28;20409;-77
2023/02/10 07:29:22;;;;;;;53.70;30.90;;;;;;;-2.91;100.00;102877.50;4995103;28;20042;-76
2023/02/10 07:31:47;;;;;;;59.63;30.35;;;;;;;-2.86;100.00;102871.13;4989590;28;20134;-76
2023/02/10 07:34:13;;;;;;;76.50;25.67;;;;;;;-3.63;100.00;102765.44;4990325;28;20066;-77
2023/02/10 07:36:40;;;;;;;50.78;24.10;;;;;;;-4.19;100.00;102646.50;5007615;28;20498;-76
2023/02/10 07:39:05;;;;;;;53.88;30.17;;;;;;;-3.60;100.00;102740.09;4990455;28;20030;-75
2023/02/10 07:41:31;;;;;;;57.25;26.98;;;;;;;-2.78;100.00;102859.94;4995928;28;20409;-77
2023/02/10 07:43:56;;;;;;;50.53;28.45;;;;;;;-2.58;100.00;102860.88;4992084;28;20088;-76
2023/02/10 07:46:22;;;;;;;52.20;26.20;;;;;;;-2.68;100.00;102889.94;4999016;28;20397;-76
2023/02/10 07:48:47;;;;;;;62.35;31.40;;;;;;;-2.43;100.00;102889.69;4998444;28;20091;-77
2023/02/10 07:51:13;;;;;;;48.55;25.02;;;;;;;-3.19;100.00;102746.53;4993154;28;20056;-78
2023/02/10 07:53:38;;;;;;;48.08;26.92;;;;;;;-3.22;100.00;102735.09;5019965;28;20065;-74
2023/02/10 07:56:04;;;;;;;57.60;27.30;;;;;;;-2.43;100.00;102889.69;5007718;28;20474;-73
2023/02/10 07:58:30;;;;;;;40.90;24.63;;;;;;;-2.61;100.00;102882.06;4994003;28;20148;-73
2023/02/10 08:00:56;;;;;;;57.58;26.45;;;;;;;-2.46;100.00;102863.66;5003490;28;20047;-77
2023/02/10 08:03:22;;;;;;;43.95;24.90;;;;;;;-2.27;100.00;102892.91;4996466;28;20711;-78
2023/02/10 08:05:48;;;;;;;52.75;24.50;;;;;;;-2.60;100.00;102885.53;4998177;28;20073;-79
2023/02/10 08:08:14;;;;;;;47.35;24.30;;;;;;;-2.49;100.00;102884.84;4994352;28;20080;-79
2023/02/10 08:10:41;;;;;;;47.65;24.77;;;;;;;-3.04;100.00;102764.16;5003227;28;20494;-80
2023/02/10 08:13:06;;;;;;;45.65;22.45;;;;;;;-2.91;100.00;102761.03;4993993;28;20078;-77
2023/02/10 08:15:33;;;;;;;49.10;27.17;;;;;;;-2.21;100.00;102877.13;5005475;28;20452;-77
2023/02/10 08:17:59;;;;;;;49.05;26.23;;;;;;;-2.33;100.00;102835.75;5007365;28;20026;-77
2023/02/10 08:20:25;;;;;;;44.45;25.67;;;;;;;-2.02;100.00;102852.28;5008212;28;20034;-79
2023/02/10 08:22:59;;;;;;;48.30;25.00;;;;;;;-2.51;100.00;102769.81;5001944;28;20402;-78
2023/02/10 08:25:24;;;;;;;;;;;;;;;-1.74;100.00;102863.38;5000890;28;20053;-79
2023/02/10 08:27:50;;;;;;;41.90;24.10;;;;;;;-2.42;100.00;102734.66;5001445;28;19921;-79
2023/02/10 08:30:15;;;;;;;38.58;21.60;;;;;;;-1.53;100.00;102856.66;5000563;28;20068;-79
2023/02/10 08:32:41;;;;;;;30.60;19.15;;;;;;;-2.58;100.00;102727.22;5004984;28;20021;-80
2023/02/10 08:35:06;;;;;;;38.97;20.13;;;;;;;-2.53;100.00;102759.38;5003070;28;20733;-79
2023/02/10 08:37:32;;;;;;;38.25;18.13;;;;;;;-1.75;100.00;102847.81;5001567;28;20042;-78
2023/02/10 08:39:58;;;;;;;41.22;20.10;;;;;;;-1.51;100.00;102870.56;5009554;28;20089;-79
2023/02/10 08:42:24;;;;;;;50.22;21.52;;;;;;;-1.63;100.00;102851.47;5000940;28;20251;-80
2023/02/10 08:44:50;;;;;;;46.03;25.27;;;;;;;-1.73;100.00;102815.41;4994420;28;20042;-79
2023/02/10 08:47:15;;;;;;;43.70;20.92;;;;;;;-1.78;100.00;102796.06;4999763;28;20037;-79
2023/02/10 08:49:41;;;;;;;38.53;18.20;;;;;;;-1.82;100.00;102770.84;5000498;28;20117;-74
2023/02/10 08:52:07;;;;;;;43.03;19.30;;;;;;;-1.94;100.00;102758.72;5000305;28;20046;-75
2023/02/10 08:54:33;;;;;;;38.58;22.67;;;;;;;-1.92;100.00;102764.91;4999464;28;20047;-77
2023/02/10 08:56:58;;;;;;;44.65;21.38;;;;;;;-1.31;100.00;102850.84;4991680;28;20053;-77
2023/02/10 08:59:24;;;;;;;33.55;20.65;;;;;;;-1.48;100.00;102877.66;5000819;28;20065;-78
2023/02/10 09:01:50;;;;;;;36.67;17.92;;;;;;;-1.35;100.00;102861.63;4999578;28;20061;-80
2023/02/10 09:04:15;;;;;;;50.22;21.50;;;;;;;-1.26;100.00;102844.41;5017332;28;20086;-78
2023/02/10 09:06:43;;;;;;;31.95;20.73;;;;;;;-1.74;100.00;102742.44;5000310;28;20056;-77
2023/02/10 09:09:14;;;;;;;32.58;17.98;;;;;;;-1.95;100.00;102722.53;4996948;28;20061;-79
2023/02/10 09:11:41;;;;;;;30.00;18.35;;;;;;;-1.03;100.00;102866.09;5006279;28;20104;-77
2023/02/10 09:14:07;;;;;;;35.58;20.63;;;;;;;-0.86;100.00;102873.63;5000919;28;20053;-79
2023/02/10 09:16:33;;;;;;;36.25;18.63;;;;;;;-1.08;100.00;102848.59;4994094;28;20049;-75
2023/02/10 09:18:58;;;;;;;39.35;19.27;;;;;;;-1.15;100.00;102863.38;5001620;28;20049;-80
2023/02/10 09:21:24;;;;;;;41.65;21.63;;;;;;;-1.42;100.00;102767.50;4997707;28;20081;-75
2023/02/10 09:23:50;;;;;;;44.05;21.08;;;;;;;-0.96;100.00;102834.94;4999376;28;20038;-79
2023/02/10 09:26:16;;;;;;;38.42;20.70;;;;;;;-1.34;100.00;102761.31;4994247;28;20054;-80
2023/02/10 09:28:41;;;;;;;47.47;19.83;;;;;;;-1.48;100.00;102748.94;4990583;28;20561;-76
2023/02/10 09:31:09;;;;;;;64.53;19.17;;;;;;;-0.70;100.00;102850.97;4998039;28;20070;-79
2023/02/10 09:33:34;;;;;;;30.70;18.23;;;;;;;-0.53;100.00;102841.16;4996257;28;20065;-81
2023/02/10 09:36:03;;;;;;;44.70;20.83;;;;;;;-1.30;100.00;102745.38;5005737;28;20034;-79
2023/02/10 09:38:30;;;;;;;32.35;18.23;;;;;;;-0.86;100.00;102802.34;5003052;28;20038;-77
2023/02/10 09:41:16;;;;;;;60.85;18.55;;;;;;;-0.30;100.00;102853.41;4999886;28;20049;-76
2023/02/10 09:44:03;;;;;;;39.28;17.38;;;;;;;-0.12;98.91;102867.81;5002102;28;20132;-80
2023/02/10 09:46:55;;;;;;;36.42;17.35;;;;;;;-0.78;94.64;102755.72;5001411;28;20153;-79
2023/02/10 09:49:51;;;;;;;20.77;12.65;;;;;;;0.09;92.74;102863.53;4999259;28;20096;-78
2023/02/10 09:52:32;;;;;;;30.42;15.13;;;;;;;0.07;91.09;102864.19;5004219;28;20153;-77
2023/02/10 09:54:58;;;;;;;32.00;16.85;;;;;;;-0.53;90.32;102701.94;4994528;28;20081;-76
2023/02/10 09:57:39;;;;;;;37.38;18.20;;;;;;;0.19;88.49;102845.44;4993220;28;20039;-76
2023/02/10 10:00:17;;;;;;;35.50;17.38;;;;;;;0.05;89.06;102853.75;4993459;28;20092;-76
2023/02/10 10:02:49;;;;;;;30.98;19.20;;;;;;;-0.20;89.18;102825.03;5003254;28;20034;-78
2023/02/10 10:05:50;;;;;;;29.02;16.00;;;;;;;-0.20;90.10;102703.75;4995752;28;20058;-79
2023/02/10 10:08:52;;;;;;;26.45;15.45;;;;;;;-0.12;84.42;102825.63;5000342;28;20054;-76
2023/02/10 10:11:25;;;;;;;31.48;17.65;;;;;;;0.15;80.42;102825.31;5002045;28;20085;-77
2023/02/10 10:13:54;;;;;;;60.22;18.20;;;;;;;0.16;83.78;102814.22;5003077;28;20125;-78
2023/02/10 10:16:32;;;;;;;43.85;18.70;;;;;;;0.35;85.41;102802.78;5002971;28;20462;-78
2023/02/10 10:19:12;;;;;;;29.48;14.65;;;;;;;0.17;81.20;102789.31;5002539;28;20160;-77
2023/02/10 10:21:51;;;;;;;27.15;13.75;;;;;;;0.58;82.46;102787.41;4997847;28;20065;-75
2023/02/10 10:24:16;;;;;;;26.98;15.95;;;;;;;0.63;78.92;102805.88;4998941;28;20367;-76
2023/02/10 10:27:19;;;;;;;27.30;16.30;;;;;;;0.52;82.55;102792.13;4992403;28;20036;-79
2023/02/10 10:29:54;;;;;;;37.95;16.83;;;;;;;-0.30;80.64;102694.38;5009783;28;20041;-76
2023/02/10 10:32:45;;;;;;;31.05;17.20;;;;;;;-0.27;82.66;102678.25;4991473;28;20064;-78
2023/02/10 10:35:28;;;;;;;31.00;16.40;;;;;;;-0.17;80.50;102682.47;4992490;28;20069;-80
2023/02/10 10:37:54;;;;;;;55.05;18.88;;;;;;;0.69;78.19;102751.22;4996299;28;20041;-77
2023/02/10 10:40:25;;;;;;;62.78;19.30;;;;;;;0.59;74.17;102732.41;5005112;28;20490;-79
2023/02/10 10:42:58;;;;;;;25.88;15.25;;;;;;;1.04;73.94;102764.25;4988337;28;20046;-79
2023/02/10 10:45:40;;;;;;;29.48;13.18;;;;;;;1.16;71.33;102760.03;4994482;28;20535;-80
2023/02/10 10:48:09;;;;;;;24.95;13.55;;;;;;;0.27;71.00;102631.75;5000938;28;20038;-74
2023/02/10 10:50:35;;;;;;;22.58;13.52;;;;;;;0.94;71.94;102654.09;4998377;28;20060;-74
2023/02/10 10:53:11;;;;;;;24.10;12.18;;;;;;;0.68;69.64;102638.28;5003577;28;20042;-76
2023/02/10 10:55:40;;;;;;;17.25;10.65;;;;;;;1.57;66.58;102735.44;4992273;28;20046;-76
2023/02/10 10:58:34;;;;;;;21.27;12.43;;;;;;;1.70;64.21;102758.88;4988804;28;20482;-75
2023/02/10 11:01:01;;;;;;;21.08;11.52;;;;;;;1.45;64.24;102608.69;4995624;28;20137;-74
2023/02/10 11:03:27;;;;;;;21.33;12.15;;;;;;;1.08;60.08;102607.69;4995897;28;20054;-76
2023/02/10 11:05:59;;;;;;;19.50;12.77;;;;;;;1.36;60.56;102619.28;5002919;28;20440;-74
2023/02/10 11:08:29;;;;;;;22.97;11.03;;;;;;;1.66;60.85;102721.53;5003306;28;20091;-76
2023/02/10 11:10:59;;;;;;;34.05;11.45;;;;;;;2.39;59.57;102756.09;5008289;28;20413;-75